Time;durP1;ratioP1;P1;durP2;ratioP2;P2;SDS_P1;SDS_P2;PMS_P1;PMS_P2;Temp;Humidity;BMP_temperature;BMP_pressure;BME280_temperature;BME280_humidity;BME280_pressure;Samples;Min_cycle;Max_cycle;Signal;HPM_P1;HPM_P2
2023/11/28 00:04:23;;;;;;;32.20;16.63;;;;;;;-0.40;66.31;98369.47;30600310;28;96750;-62
2023/11/28 00:19:24;;;;;;;31.88;17.85;;;;;;;-0.44;66.54;98347.19;30600327;28;97105;-62
2023/11/28 00:34:25;;;;;;;37.65;19.77;;;;;;;-0.53;66.83;98322.75;30598349;28;97080;-62
2023/11/28 00:49:25;;;;;;;36.25;19.50;;;;;;;-0.56;67.10;98323.03;30596434;28;96813;-63
2023/11/28 01:04:26;;;;;;;39.90;20.25;;;;;;;-0.61;67.32;98304.34;30595047;28;98268;-62
2023/11/28 01:19:26;;;;;;;39.47;20.55;;;;;;;-0.60;67.83;98289.47;30608495;28;97131;-62
2023/11/28 01:34:26;;;;;;;38.20;20.35;;;;;;;-0.69;68.00;98270.25;30614727;28;101703;-62
2023/11/28 01:49:34;;;;;;;35.88;19.67;;;;;;;-0.68;68.68;98233.47;30613890;28;99656;-62
2023/11/28 02:04:35;;;;;;;36.85;18.20;;;;;;;-0.66;69.04;98224.69;30611098;28;97406;-62
2023/11/28 02:19:35;;;;;;;38.25;20.50;;;;;;;-0.65;68.88;98197.56;30609637;28;96925;-65
2023/11/28 02:34:35;;;;;;;39.97;19.58;;;;;;;-0.73;69.18;98175.56;30608438;28;97629;-62
2023/11/28 02:49:36;;;;;;;40.40;20.35;;;;;;;-0.68;69.42;98168.09;30606064;28;96982;-62
2023/11/28 03:04:37;;;;;;;30.95;18.38;;;;;;;-0.68;69.87;98131.50;30605575;28;98299;-62
2023/11/28 03:19:38;;;;;;;35.28;17.02;;;;;;;-0.70;69.64;98125.59;30604877;28;97022;-63
2023/11/28 03:34:40;;;;;;;26.60;14.60;;;;;;;-0.74;69.57;98121.66;30602429;28;97304;-62
2023/11/28 03:49:40;;;;;;;23.35;12.98;;;;;;;-0.84;70.24;98113.03;30600996;28;97368;-62
2023/11/28 04:04:41;;;;;;;22.02;12.10;;;;;;;-0.90;70.39;98090.13;30598376;28;97081;-62
2023/11/28 04:19:41;;;;;;;20.17;11.60;;;;;;;-0.89;70.73;98073.44;30597818;28;98551;-61
2023/11/28 04:34:41;;;;;;;22.92;12.23;;;;;;;-0.88;70.64;98072.47;30595089;28;111682;-62
2023/11/28 04:49:42;;;;;;;21.25;13.43;;;;;;;-0.90;71.13;98063.97;30593339;28;97290;-62
2023/11/28 05:04:42;;;;;;;23.58;13.05;;;;;;;-0.86;71.26;98066.13;30586688;28;97696;-62
2023/11/28 05:19:43;;;;;;;24.55;12.50;;;;;;;-0.83;71.16;98051.94;30585918;28;96975;-63
2023/11/28 05:34:43;;;;;;;26.88;13.00;;;;;;;-0.79;71.13;98044.59;30586674;28;97127;-62
2023/11/28 05:49:43;;;;;;;22.52;11.35;;;;;;;-0.83;71.47;98040.66;30587605;28;107275;-61
2023/11/28 06:04:43;;;;;;;17.50;10.50;;;;;;;-0.84;71.42;98045.06;30599865;28;99811;-61
2023/11/28 06:19:44;;;;;;;18.55;10.40;;;;;;;-0.86;71.47;98049.63;30605845;28;107227;-63
2023/11/28 06:34:46;;;;;;;18.67;9.55;;;;;;;-0.84;71.67;98063.38;30606465;28;96888;-62
2023/11/28 06:49:47;;;;;;;19.58;9.77;;;;;;;-0.77;71.50;98064.41;30604354;28;97311;-63
2023/11/28 07:04:47;;;;;;;17.33;10.55;;;;;;;-0.71;71.72;98061.19;30601899;28;106441;-63
2023/11/28 07:19:47;;;;;;;19.35;10.30;;;;;;;-0.77;71.61;98074.88;30601647;28;96804;-62
2023/11/28 07:34:48;;;;;;;20.30;11.07;;;;;;;-0.75;71.50;98087.78;30599030;28;114536;-62
2023/11/28 07:49:48;;;;;;;19.85;11.35;;;;;;;-0.65;71.46;98095.56;30596350;28;111824;-63
2023/11/28 08:04:48;;;;;;;18.58;9.93;;;;;;;-0.57;71.42;98100.88;30594508;28;110952;-63
2023/11/28 08:19:49;;;;;;;22.27;11.50;;;;;;;-0.68;70.86;98110.56;30593974;28;97057;-63
2023/11/28 08:34:50;;;;;;;17.05;9.50;;;;;;;-0.63;71.27;98117.16;30592579;28;97008;-63
2023/11/28 08:49:50;;;;;;;17.67;10.15;;;;;;;-0.53;71.15;98125.75;30590175;28;97212;-62
2023/11/28 09:04:51;;;;;;;27.65;13.98;;;;;;;-0.49;70.55;98129.72;30591995;28;96954;-62
2023/11/28 09:19:51;;;;;;;19.52;9.88;;;;;;;-0.39;70.18;98138.28;30587943;28;107704;-62
2023/11/28 09:34:51;;;;;;;16.38;9.52;;;;;;;-0.23;70.14;98139.41;30594824;28;98003;-62
2023/11/28 09:49:55;;;;;;;24.98;11.27;;;;;;;-0.04;69.72;98112.19;30608294;28;111835;-62
2023/11/28 10:04:56;;;;;;;19.57;10.60;;;;;;;0.19;69.53;98112.50;30605360;28;97504;-62
2023/11/28 10:20:04;;;;;;;15.60;9.13;;;;;;;0.47;69.23;98110.53;30599823;28;98266;-62
2023/11/28 10:35:08;;;;;;;16.30;10.25;;;;;;;0.53;68.94;98114.31;30596159;28;96695;-61
2023/11/28 10:50:13;;;;;;;18.13;10.77;;;;;;;0.75;68.40;98106.88;30622690;28;98063;-61
2023/11/28 11:05:14;;;;;;;18.90;10.75;;;;;;;0.32;68.54;98128.63;30710127;28;96825;-60
2023/11/28 11:20:17;;;;;;;18.55;9.32;;;;;;;-0.05;68.82;98139.38;30719164;28;96689;-61
2023/11/28 11:35:17;;;;;;;18.33;10.48;;;;;;;0.01;69.25;98154.47;30667046;28;97159;-62
2023/11/28 11:50:19;;;;;;;16.05;9.00;;;;;;;-0.05;69.17;98148.03;30596603;28;105876;-66
2023/11/28 12:05:20;;;;;;;15.98;8.48;;;;;;;0.06;69.02;98159.25;30673630;28;97705;-65
2023/11/28 12:20:21;;;;;;;15.25;8.50;;;;;;;0.18;69.32;98181.59;30688072;28;96730;-65
2023/11/28 12:35:22;;;;;;;20.83;9.48;;;;;;;0.19;68.84;98195.50;30676059;28;96648;-66
2023/11/28 12:50:26;;;;;;;21.60;11.98;;;;;;;0.21;69.04;98217.94;30713745;28;97161;-66
2023/11/28 13:05:26;;;;;;;22.37;10.73;;;;;;;0.17;69.18;98235.75;30712622;28;97050;-66
2023/11/28 13:20:28;;;;;;;19.23;10.43;;;;;;;0.05;69.55;98259.72;30731235;28;104358;-65
2023/11/28 13:35:29;;;;;;;17.90;10.70;;;;;;;-0.12;68.74;98277.88;30729179;28;97182;-66
2023/11/28 13:50:29;;;;;;;24.38;11.60;;;;;;;-0.14;69.16;98303.38;30728591;28;98549;-64
2023/11/28 14:05:30;;;;;;;16.95;9.40;;;;;;;-0.27;69.16;98331.72;30728469;28;97140;-65
2023/11/28 14:20:30;;;;;;;16.05;9.77;;;;;;;-0.48;69.18;98351.06;30606775;28;96972;-62
2023/11/28 14:35:30;;;;;;;23.10;10.43;;;;;;;-0.55;69.30;98376.16;30598841;28;97226;-64
2023/11/28 14:50:31;;;;;;;20.33;10.60;;;;;;;-0.66;69.60;98395.47;30595546;28;97956;-62
2023/11/28 15:05:32;;;;;;;22.70;11.32;;;;;;;-0.79;69.56;98419.34;30718214;28;96952;-63
2023/11/28 15:20:32;;;;;;;21.27;11.45;;;;;;;-0.78;69.96;98449.75;30720912;28;98357;-65
2023/11/28 15:35:33;;;;;;;24.35;12.43;;;;;;;-0.78;69.66;98470.66;30720907;28;97203;-64
2023/11/28 15:50:34;;;;;;;26.58;12.80;;;;;;;-0.78;69.88;98483.75;30575281;28;97375;-63
2023/11/28 16:05:35;;;;;;;27.20;13.85;;;;;;;-0.77;69.83;98516.75;30594632;28;97076;-64
2023/11/28 16:20:35;;;;;;;26.17;13.13;;;;;;;-0.82;69.80;98537.28;30595385;28;96702;-62
2023/11/28 16:35:36;;;;;;;31.25;14.98;;;;;;;-0.90;69.80;98550.22;30593560;28;104181;-64
2023/11/28 16:50:36;;;;;;;26.88;14.25;;;;;;;-0.90;69.40;98590.25;30591150;28;99325;-62
2023/11/28 17:05:36;;;;;;;29.30;14.70;;;;;;;-1.02;69.66;98635.75;30590307;28;96654;-63
2023/11/28 17:20:37;;;;;;;31.95;14.60;;;;;;;-1.04;69.74;98653.34;30590385;28;113855;-63
2023/11/28 17:35:37;;;;;;;31.25;15.20;;;;;;;-1.08;69.75;98671.13;30590417;28;97506;-63
2023/11/28 17:50:38;;;;;;;27.02;15.15;;;;;;;-1.10;70.26;98700.94;30585648;28;98199;-64
2023/11/28 18:05:39;;;;;;;29.23;16.35;;;;;;;-1.14;69.77;98717.84;30604511;28;97069;-64
2023/11/28 18:20:40;;;;;;;34.50;16.80;;;;;;;-1.21;69.79;98752.34;30604937;28;97410;-63
2023/11/28 18:35:40;;;;;;;33.35;16.85;;;;;;;-1.32;70.25;98770.72;30603678;28;97140;-63
2023/11/28 18:50:41;;;;;;;39.03;18.50;;;;;;;-1.33;70.36;98789.97;30601198;28;109991;-62
2023/11/28 19:05:41;;;;;;;38.88;19.85;;;;;;;-1.39;70.17;98809.59;30594891;28;106779;-63
2023/11/28 19:20:41;;;;;;;38.45;18.38;;;;;;;-1.47;70.71;98825.06;30597324;28;105880;-67
2023/11/28 19:35:42;;;;;;;36.03;17.08;;;;;;;-1.49;70.72;98849.66;30592512;28;96959;-64
2023/11/28 19:50:42;;;;;;;38.65;17.75;;;;;;;-1.71;70.60;98867.91;30584931;28;96882;-62
2023/11/28 20:05:45;;;;;;;33.75;16.58;;;;;;;-1.82;70.65;98883.59;30590108;28;97315;-62
2023/11/28 20:20:46;;;;;;;29.37;16.13;;;;;;;-2.01;70.24;98893.88;30587642;28;97681;-62
2023/11/28 20:35:50;;;;;;;37.03;17.77;;;;;;;-2.17;71.03;98923.78;30587434;28;97669;-61
2023/11/28 20:50:51;;;;;;;37.83;20.73;;;;;;;-2.15;71.48;98939.31;30585656;28;97543;-62
2023/11/28 21:05:53;;;;;;;42.55;21.15;;;;;;;-2.17;71.01;98952.50;30586404;28;97043;-63
2023/11/28 21:20:53;;;;;;;34.13;17.40;;;;;;;-2.47;71.63;98960.91;30584541;28;97047;-63
2023/11/28 21:35:54;;;;;;;37.40;16.85;;;;;;;-2.89;71.37;98979.66;30598088;28;97430;-62
2023/11/28 21:50:54;;;;;;;34.47;16.95;;;;;;;-3.19;71.68;99012.22;30603828;28;97283;-60
2023/11/28 22:05:54;;;;;;;38.78;17.33;;;;;;;-2.98;73.22;99020.28;30607273;28;113056;-60
2023/11/28 22:20:55;;;;;;;37.63;18.38;;;;;;;-2.78;72.11;99041.41;30608685;28;97487;-61
2023/11/28 22:35:57;;;;;;;33.88;17.95;;;;;;;-2.70;72.84;99056.50;30607692;28;110142;-61
2023/11/28 22:50:57;;;;;;;38.40;16.63;;;;;;;-2.63;73.00;99065.53;30607748;28;97018;-61
2023/11/28 23:05:58;;;;;;;31.92;15.95;;;;;;;-2.66;71.90;99092.66;30604002;28;112007;-64
2023/11/28 23:20:58;;;;;;;32.40;16.05;;;;;;;-2.77;73.17;99111.69;30605319;28;97378;-62
2023/11/28 23:35:59;;;;;;;27.52;13.45;;;;;;;-2.68;72.73;99125.00;30603609;28;105687;-62
2023/11/28 23:51:00;;;;;;;29.85;14.27;;;;;;;-2.78;72.85;99141.28;30601508;28;96724;-61
